createdAt,value
2018-08-24T00:00:03.397Z,1003.1
2018-08-24T00:00:43.950Z,1003.13
2018-08-24T00:01:24.558Z,1003.09
2018-08-24T00:02:05.116Z,1003.1
2018-08-24T00:02:45.679Z,1003.12
2018-08-24T00:03:26.760Z,1003.06
2018-08-24T00:04:07.468Z,1003.1
2018-08-24T00:04:48.187Z,1003.05
2018-08-24T00:05:28.789Z,1003.05
2018-08-24T00:06:09.333Z,1003.06
2018-08-24T00:06:49.935Z,1003.04
2018-08-24T00:07:30.748Z,1003
2018-08-24T00:08:11.346Z,1003.01
2018-08-24T00:08:51.996Z,1003.01
2018-08-24T00:09:32.631Z,1002.97
2018-08-24T00:10:13.311Z,1002.99
2018-08-24T00:10:53.861Z,1002.95
2018-08-24T00:11:34.483Z,1002.98
2018-08-24T00:12:15.119Z,1002.97
2018-08-24T00:12:55.679Z,1002.97
2018-08-24T00:13:36.248Z,1002.98
2018-08-24T00:14:16.821Z,1002.98
2018-08-24T00:14:57.466Z,1002.98
2018-08-24T00:15:38.082Z,1002.96
2018-08-24T00:16:19.326Z,1002.95
2018-08-24T00:16:59.916Z,1002.94
2018-08-24T00:17:40.561Z,1002.95
2018-08-24T00:18:21.127Z,1002.93
2018-08-24T00:19:01.697Z,1002.98
2018-08-24T00:19:42.269Z,1002.98
2018-08-24T00:20:22.828Z,1002.92
2018-08-24T00:21:03.407Z,1002.9
2018-08-24T00:21:43.985Z,1002.95
2018-08-24T00:22:24.555Z,1002.89
2018-08-24T00:23:05.123Z,1002.82
2018-08-24T00:23:45.686Z,1002.83
2018-08-24T00:24:26.235Z,1002.79
2018-08-24T00:25:06.808Z,1002.79
2018-08-24T00:25:47.366Z,1002.79
2018-08-24T00:26:27.918Z,1002.75
2018-08-24T00:27:08.487Z,1002.74
2018-08-24T00:27:49.045Z,1002.77
2018-08-24T00:28:29.606Z,1002.77
2018-08-24T00:29:10.154Z,1002.74
2018-08-24T00:29:50.724Z,1002.75
2018-08-24T00:30:31.286Z,1002.77
2018-08-24T00:31:11.863Z,1002.71
2018-08-24T00:31:52.516Z,1002.71
2018-08-24T00:32:33.007Z,1002.7
2018-08-24T00:33:13.598Z,1002.67
2018-08-24T00:33:54.144Z,1002.68
2018-08-24T00:34:34.710Z,1002.71
2018-08-24T00:35:15.258Z,1002.66
2018-08-24T00:35:55.811Z,1002.64
2018-08-24T00:36:36.361Z,1002.64
2018-08-24T00:37:16.924Z,1002.69
2018-08-24T00:37:57.488Z,1002.69
2018-08-24T00:38:38.058Z,1002.69
2018-08-24T00:39:18.616Z,1002.68
2018-08-24T00:39:59.217Z,1002.69
2018-08-24T00:40:39.765Z,1002.66
2018-08-24T00:41:20.416Z,1002.66
2018-08-24T00:42:00.982Z,1002.71
2018-08-24T00:42:41.588Z,1002.67
2018-08-24T00:43:22.099Z,1002.69
2018-08-24T00:44:02.667Z,1002.64
2018-08-24T00:44:43.234Z,1002.61
2018-08-24T00:45:23.805Z,1002.6
2018-08-24T00:46:04.376Z,1002.64
2018-08-24T00:46:44.945Z,1002.58
2018-08-24T00:47:25.522Z,1002.56
2018-08-24T00:48:06.111Z,1002.59
2018-08-24T00:48:46.690Z,1002.57
2018-08-24T00:49:27.250Z,1002.57
2018-08-24T00:50:07.802Z,1002.55
2018-08-24T00:50:48.371Z,1002.55
2018-08-24T00:51:28.929Z,1002.5
2018-08-24T00:52:09.485Z,1002.46
2018-08-24T00:52:50.050Z,1002.45
2018-08-24T00:53:30.671Z,1002.44
2018-08-24T00:54:11.231Z,1002.42
2018-08-24T00:54:51.806Z,1002.42
2018-08-24T00:55:32.379Z,1002.38
2018-08-24T00:56:12.941Z,1002.48
2018-08-24T00:56:53.489Z,1002.4
2018-08-24T00:57:34.055Z,1002.44
2018-08-24T00:58:14.622Z,1002.37
2018-08-24T00:58:55.184Z,1002.38
2018-08-24T00:59:35.795Z,1002.4
2018-08-24T01:00:16.338Z,1002.39
2018-08-24T01:00:56.919Z,1002.43
2018-08-24T01:01:37.481Z,1002.43
2018-08-24T01:02:18.077Z,1002.41
2018-08-24T01:02:58.651Z,1002.46
2018-08-24T01:03:39.231Z,1002.47
2018-08-24T01:04:19.786Z,1002.48
2018-08-24T01:05:00.401Z,1002.49
2018-08-24T01:05:40.974Z,1002.45
2018-08-24T01:06:21.630Z,1002.45
2018-08-24T01:07:02.220Z,1002.44
2018-08-24T01:07:42.873Z,1002.42
2018-08-24T01:08:23.363Z,1002.44
2018-08-24T01:09:03.934Z,1002.43
2018-08-24T01:09:44.505Z,1002.41
2018-08-24T01:10:25.070Z,1002.42
2018-08-24T01:11:05.634Z,1002.39
2018-08-24T01:11:46.196Z,1002.41
2018-08-24T01:12:26.768Z,1002.44
2018-08-24T01:13:07.343Z,1002.44
2018-08-24T01:13:47.908Z,1002.44
2018-08-24T01:14:28.461Z,1002.47
2018-08-24T01:15:09.027Z,1002.44
2018-08-24T01:15:49.585Z,1002.46
2018-08-24T01:16:30.150Z,1002.43
2018-08-24T01:17:10.740Z,1002.46
2018-08-24T01:17:51.310Z,1002.41
2018-08-24T01:18:31.938Z,1002.4
2018-08-24T01:19:12.494Z,1002.41
2018-08-24T01:19:53.070Z,1002.38
2018-08-24T01:20:33.630Z,1002.34
2018-08-24T01:21:14.213Z,1002.37
2018-08-24T01:21:54.758Z,1002.39
2018-08-24T01:22:35.317Z,1002.34
2018-08-24T01:23:15.885Z,1002.36
2018-08-24T01:23:56.446Z,1002.37
2018-08-24T01:24:37.009Z,1002.36
2018-08-24T01:25:17.571Z,1002.35
2018-08-24T01:25:58.143Z,1002.33
2018-08-24T01:26:38.721Z,1002.38
2018-08-24T01:27:19.279Z,1002.38
2018-08-24T01:27:59.837Z,1002.38
2018-08-24T01:28:40.392Z,1002.35
2018-08-24T01:29:20.962Z,1002.38
2018-08-24T01:30:01.545Z,1002.36
2018-08-24T01:30:42.089Z,1002.37
2018-08-24T01:31:22.657Z,1002.39
2018-08-24T01:32:03.209Z,1002.37
2018-08-24T01:32:43.768Z,1002.36
2018-08-24T01:33:24.333Z,1002.36
2018-08-24T01:34:04.891Z,1002.31
2018-08-24T01:34:45.455Z,1002.34
2018-08-24T01:35:26.014Z,1002.34
2018-08-24T01:36:06.587Z,1002.32
2018-08-24T01:36:47.164Z,1002.32
2018-08-24T01:37:27.721Z,1002.29
2018-08-24T01:38:08.284Z,1002.32
2018-08-24T01:38:48.848Z,1002.28
2018-08-24T01:39:29.444Z,1002.25
2018-08-24T01:40:10.017Z,1002.24
2018-08-24T01:40:50.583Z,1002.26
2018-08-24T01:41:31.146Z,1002.21
2018-08-24T01:42:11.715Z,1002.2
2018-08-24T01:42:52.295Z,1002.19
2018-08-24T01:43:32.863Z,1002.15
2018-08-24T01:44:13.417Z,1002.17
2018-08-24T01:44:53.984Z,1002.13
2018-08-24T01:45:34.544Z,1002.13
2018-08-24T01:46:15.102Z,1002.08
2018-08-24T01:46:55.670Z,1002.11
2018-08-24T01:47:36.238Z,1002.11
2018-08-24T01:48:16.815Z,1002.1
2018-08-24T01:48:57.376Z,1002.14
2018-08-24T01:49:37.932Z,1002.12
2018-08-24T01:50:18.497Z,1002.13
2018-08-24T01:50:59.054Z,1002.07
2018-08-24T01:51:39.615Z,1002.08
2018-08-24T01:52:20.189Z,1002.08
2018-08-24T01:53:00.786Z,1002.08
2018-08-24T01:53:41.337Z,1002.07
2018-08-24T01:54:21.911Z,1002.07
2018-08-24T01:55:02.474Z,1002.05
2018-08-24T01:55:43.038Z,1002.07
2018-08-24T01:56:23.588Z,1002.13
2018-08-24T01:57:04.148Z,1002.09
2018-08-24T01:57:44.721Z,1002.11
2018-08-24T01:58:25.324Z,1002.13
2018-08-24T01:59:05.975Z,1002.1
2018-08-24T01:59:46.472Z,1002.16
2018-08-24T02:00:27.031Z,1002.16
2018-08-24T02:01:07.592Z,1002.18
2018-08-24T02:01:48.206Z,1002.13
2018-08-24T02:02:28.776Z,1002.19
2018-08-24T02:03:09.340Z,1002.18
2018-08-24T02:03:49.901Z,1002.22
2018-08-24T02:04:30.479Z,1002.22
2018-08-24T02:05:11.048Z,1002.18
2018-08-24T02:05:51.613Z,1002.21
2018-08-24T02:06:32.190Z,1002.21
2018-08-24T02:07:12.793Z,1002.21
2018-08-24T02:07:53.358Z,1002.2
2018-08-24T02:08:33.923Z,1002.17
2018-08-24T02:09:14.489Z,1002.12
2018-08-24T02:09:55.084Z,1002.15
2018-08-24T02:10:35.650Z,1002.15
2018-08-24T02:11:16.228Z,1002.11
2018-08-24T02:11:56.803Z,1002.11
2018-08-24T02:12:37.343Z,1002.09
2018-08-24T02:13:17.910Z,1002.11
2018-08-24T02:13:58.503Z,1002.12
2018-08-24T02:14:39.095Z,1002.12
2018-08-24T02:15:19.656Z,1002.09
2018-08-24T02:16:00.217Z,1002.14
2018-08-24T02:16:40.784Z,1002.12
2018-08-24T02:17:21.351Z,1002.15
2018-08-24T02:18:01.911Z,1002.11
2018-08-24T02:18:42.478Z,1002.11
2018-08-24T02:19:23.031Z,1002.07
2018-08-24T02:20:03.607Z,1002.09
2018-08-24T02:20:44.160Z,1002.09
2018-08-24T02:21:24.730Z,1002.1
2018-08-24T02:22:05.272Z,1002.13
2018-08-24T02:22:45.824Z,1002.05
2018-08-24T02:23:26.396Z,1002.07
2018-08-24T02:24:06.965Z,1002.06
2018-08-24T02:24:47.526Z,1002.05
2018-08-24T02:25:28.084Z,1002.01
2018-08-24T02:26:08.646Z,1002.02
2018-08-24T02:26:49.203Z,1001.98
2018-08-24T02:27:29.801Z,1001.99
2018-08-24T02:28:10.360Z,1002
2018-08-24T02:28:50.932Z,1002
2018-08-24T02:29:31.496Z,1002.04
2018-08-24T02:30:12.073Z,1002.02
2018-08-24T02:30:52.627Z,1001.98
2018-08-24T02:31:33.196Z,1002
2018-08-24T02:32:13.764Z,1002
2018-08-24T02:32:54.342Z,1002.01
2018-08-24T02:33:34.904Z,1002.02
2018-08-24T02:34:15.504Z,1002.05
2018-08-24T02:34:56.032Z,1002.01
2018-08-24T02:35:36.590Z,1002.04
2018-08-24T02:36:17.173Z,1002.02
2018-08-24T02:36:57.747Z,1002.07
2018-08-24T02:37:38.322Z,1002.08
2018-08-24T02:38:18.901Z,1002.06
2018-08-24T02:38:59.505Z,1002.06
2018-08-24T02:39:40.094Z,1002.07
2018-08-24T02:40:20.654Z,1002.1
2018-08-24T02:41:01.240Z,1002.07
2018-08-24T02:41:41.799Z,1002.09
2018-08-24T02:42:22.370Z,1002.13
2018-08-24T02:43:02.925Z,1002.11
2018-08-24T02:43:43.488Z,1002.1
2018-08-24T02:44:24.056Z,1002.13
2018-08-24T02:45:04.679Z,1002.1
2018-08-24T02:45:45.175Z,1002.05
2018-08-24T02:46:25.738Z,1002.1
2018-08-24T02:47:06.292Z,1002.06
2018-08-24T02:47:46.853Z,1002.03
2018-08-24T02:48:27.427Z,1002.06
2018-08-24T02:49:08.002Z,1002.02
2018-08-24T02:49:48.554Z,1002.03
2018-08-24T02:50:29.137Z,1001.98
2018-08-24T02:51:09.707Z,1001.99
2018-08-24T02:51:50.289Z,1001.98
2018-08-24T02:52:30.866Z,1001.94
2018-08-24T02:53:11.428Z,1001.94
2018-08-24T02:53:52.021Z,1001.92
2018-08-24T02:54:32.593Z,1001.92
2018-08-24T02:55:13.162Z,1001.92
2018-08-24T02:55:53.732Z,1001.92
2018-08-24T02:56:34.294Z,1001.89
2018-08-24T02:57:14.861Z,1001.84
2018-08-24T02:57:55.438Z,1001.88
2018-08-24T02:58:36.001Z,1001.86
2018-08-24T02:59:16.573Z,1001.88
2018-08-24T02:59:57.133Z,1001.9
2018-08-24T03:00:37.702Z,1001.9
2018-08-24T03:01:18.252Z,1001.96
2018-08-24T03:01:58.838Z,1001.94
2018-08-24T03:02:39.395Z,1001.92
2018-08-24T03:03:19.954Z,1001.95
2018-08-24T03:04:00.544Z,1001.95
2018-08-24T03:04:41.099Z,1001.96
2018-08-24T03:05:21.852Z,1001.93
2018-08-24T03:06:02.217Z,1001.91
2018-08-24T03:06:42.784Z,1001.94
2018-08-24T03:07:23.360Z,1001.94
2018-08-24T03:08:03.941Z,1001.96
2018-08-24T03:08:44.494Z,1001.95
2018-08-24T03:09:25.124Z,1001.97
2018-08-24T03:10:05.688Z,1001.99
2018-08-24T03:10:46.343Z,1001.98
2018-08-24T03:11:26.946Z,1001.92
2018-08-24T03:12:07.556Z,1001.93
2018-08-24T03:12:48.126Z,1001.93
2018-08-24T03:13:28.711Z,1001.9
2018-08-24T03:14:09.313Z,1001.95
2018-08-24T03:14:49.868Z,1001.9
2018-08-24T03:15:30.435Z,1001.92
2018-08-24T03:16:11.054Z,1001.9
2018-08-24T03:16:51.604Z,1001.89
2018-08-24T03:17:32.159Z,1001.88
2018-08-24T03:18:12.728Z,1001.9
2018-08-24T03:18:53.273Z,1001.9
2018-08-24T03:19:33.831Z,1001.94
2018-08-24T03:20:14.374Z,1001.91
2018-08-24T03:20:54.933Z,1001.89
2018-08-24T03:21:35.504Z,1001.88
2018-08-24T03:22:16.083Z,1001.88
2018-08-24T03:22:56.712Z,1001.89
2018-08-24T03:23:37.271Z,1001.93
2018-08-24T03:24:17.846Z,1001.88
2018-08-24T03:24:58.396Z,1001.91
2018-08-24T03:25:38.963Z,1001.91
2018-08-24T03:26:19.522Z,1001.94
2018-08-24T03:27:00.084Z,1001.95
2018-08-24T03:27:40.684Z,1001.94
2018-08-24T03:28:21.238Z,1001.95
2018-08-24T03:29:01.805Z,1001.91
2018-08-24T03:29:42.380Z,1001.9
2018-08-24T03:30:22.943Z,1001.88
2018-08-24T03:31:03.506Z,1001.85
2018-08-24T03:31:44.075Z,1001.86
2018-08-24T03:32:24.891Z,1001.85
2018-08-24T03:33:05.453Z,1001.85
2018-08-24T03:33:46.014Z,1001.88
2018-08-24T03:34:26.559Z,1001.87
2018-08-24T03:35:07.111Z,1001.89
2018-08-24T03:35:47.684Z,1001.89
2018-08-24T03:36:28.368Z,1001.86
2018-08-24T03:37:08.942Z,1001.86
2018-08-24T03:37:49.503Z,1001.89
2018-08-24T03:38:30.075Z,1001.88
2018-08-24T03:39:10.650Z,1001.87
2018-08-24T03:39:51.230Z,1001.93
2018-08-24T03:40:31.811Z,1001.93
2018-08-24T03:41:12.375Z,1001.94
2018-08-24T03:41:52.946Z,1001.96
2018-08-24T03:42:33.503Z,1001.9
2018-08-24T03:43:14.070Z,1001.93
2018-08-24T03:43:54.627Z,1001.9
2018-08-24T03:44:35.207Z,1001.92
2018-08-24T03:45:15.754Z,1001.91
2018-08-24T03:45:56.413Z,1001.91
2018-08-24T03:46:36.905Z,1001.95
2018-08-24T03:47:17.472Z,1001.91
2018-08-24T03:47:58.037Z,1001.93
2018-08-24T03:48:38.599Z,1001.94
2018-08-24T03:49:19.204Z,1001.9
2018-08-24T03:49:59.771Z,1001.89
2018-08-24T03:50:40.332Z,1001.91
2018-08-24T03:51:20.888Z,1001.88
2018-08-24T03:52:01.443Z,1001.92
2018-08-24T03:52:42.110Z,1001.93
2018-08-24T03:53:22.677Z,1001.88
2018-08-24T03:54:03.215Z,1001.8
2018-08-24T03:54:43.855Z,1001.87
2018-08-24T03:55:24.406Z,1001.84
2018-08-24T03:56:05.007Z,1001.91
2018-08-24T03:56:45.580Z,1001.83
2018-08-24T03:57:26.155Z,1001.85
2018-08-24T03:58:06.714Z,1001.86
2018-08-24T03:58:47.288Z,1001.93
2018-08-24T03:59:27.842Z,1001.89
2018-08-24T04:00:08.400Z,1001.93
2018-08-24T04:00:48.977Z,1001.91
2018-08-24T04:01:29.549Z,1001.97
2018-08-24T04:02:10.116Z,1001.96
2018-08-24T04:02:50.676Z,1001.96
2018-08-24T04:03:31.239Z,1001.97
2018-08-24T04:04:11.885Z,1001.95
2018-08-24T04:04:52.449Z,1001.98
2018-08-24T04:05:33.001Z,1002.03
2018-08-24T04:06:13.562Z,1002.01
2018-08-24T04:06:54.135Z,1002.02
2018-08-24T04:07:34.725Z,1002
2018-08-24T04:08:15.282Z,1002.04
2018-08-24T04:08:55.843Z,1002.06
2018-08-24T04:09:36.413Z,1002.09
2018-08-24T04:10:17.043Z,1002.09
2018-08-24T04:10:57.593Z,1002.09
2018-08-24T04:11:38.155Z,1002.06
2018-08-24T04:12:18.774Z,1002.02
2018-08-24T04:12:59.322Z,1002.06
2018-08-24T04:13:39.896Z,1002.07
2018-08-24T04:14:20.461Z,1002.14
2018-08-24T04:15:01.026Z,1002.09
2018-08-24T04:15:41.622Z,1002.05
2018-08-24T04:16:22.192Z,1002.03
2018-08-24T04:17:02.762Z,1002.07
2018-08-24T04:17:43.334Z,1002.01
2018-08-24T04:18:23.927Z,1002.03
2018-08-24T04:19:04.526Z,1002.1
2018-08-24T04:19:45.079Z,1002.03
2018-08-24T04:20:25.642Z,1002.08
2018-08-24T04:21:06.202Z,1002.06
2018-08-24T04:21:46.766Z,1002.07
2018-08-24T04:22:27.365Z,1002.11
2018-08-24T04:23:07.940Z,1002.15
2018-08-24T04:23:48.497Z,1002.09
2018-08-24T04:24:29.051Z,1002.12
2018-08-24T04:25:09.635Z,1002.12
2018-08-24T04:25:50.297Z,1002.08
2018-08-24T04:26:30.772Z,1002.05
2018-08-24T04:27:11.360Z,1002.07
2018-08-24T04:27:51.951Z,1002.07
2018-08-24T04:28:32.519Z,1002.05
2018-08-24T04:29:13.081Z,1002.04
2018-08-24T04:29:53.638Z,1002.05
2018-08-24T04:30:34.204Z,1002.09
2018-08-24T04:31:14.764Z,1002.07
2018-08-24T04:31:55.336Z,1002.06
2018-08-24T04:32:35.902Z,1002.1
2018-08-24T04:33:16.485Z,1002.08
2018-08-24T04:33:57.037Z,1002.08
2018-08-24T04:34:37.600Z,1002.1
2018-08-24T04:35:18.157Z,1002.1
2018-08-24T04:35:58.723Z,1002.13
2018-08-24T04:36:39.442Z,1002.13
2018-08-24T04:37:20.051Z,1002.1
2018-08-24T04:38:00.614Z,1002.13
2018-08-24T04:38:41.177Z,1002.15
2018-08-24T04:39:21.741Z,1002.16
2018-08-24T04:40:02.302Z,1002.16
2018-08-24T04:40:42.869Z,1002.14
2018-08-24T04:41:23.434Z,1002.18
2018-08-24T04:42:04.004Z,1002.18
2018-08-24T04:42:44.565Z,1002.2
2018-08-24T04:43:25.143Z,1002.18
2018-08-24T04:44:05.699Z,1002.16
2018-08-24T04:44:46.277Z,1002.15
2018-08-24T04:45:26.886Z,1002.14
2018-08-24T04:46:07.411Z,1002.15
2018-08-24T04:46:47.976Z,1002.14
2018-08-24T04:47:28.551Z,1002.12
2018-08-24T04:48:09.115Z,1002.15
2018-08-24T04:48:49.674Z,1002.15
2018-08-24T04:49:30.257Z,1002.17
2018-08-24T04:50:10.849Z,1002.14
2018-08-24T04:50:51.413Z,1002.13
2018-08-24T04:51:32.103Z,1002.14
2018-08-24T04:52:12.633Z,1002.11
2018-08-24T04:52:53.181Z,1002.11
2018-08-24T04:53:33.751Z,1002.11
2018-08-24T04:54:14.392Z,1002.06
2018-08-24T04:54:54.919Z,1002.09
2018-08-24T04:55:35.485Z,1002.04
2018-08-24T04:56:16.161Z,1002.06
2018-08-24T04:56:56.744Z,1002.01
2018-08-24T04:57:37.314Z,1001.99
2018-08-24T04:58:17.915Z,1001.99
2018-08-24T04:58:58.489Z,1001.99
2018-08-24T04:59:39.089Z,1002.05
2018-08-24T05:00:19.703Z,1002
2018-08-24T05:01:00.276Z,1002.04
2018-08-24T05:01:40.847Z,1002.04
2018-08-24T05:02:21.416Z,1002.08
2018-08-24T05:03:02.014Z,1002.03
2018-08-24T05:03:42.566Z,1001.99
2018-08-24T05:04:23.134Z,1002.06
2018-08-24T05:05:03.707Z,1002.12
2018-08-24T05:05:44.314Z,1002.09
2018-08-24T05:06:24.857Z,1002.02
2018-08-24T05:07:05.439Z,1002.04
2018-08-24T05:07:45.995Z,1002
2018-08-24T05:08:26.594Z,1002.07
2018-08-24T05:09:07.147Z,1001.95
2018-08-24T05:09:47.728Z,1001.98
2018-08-24T05:10:28.286Z,1001.94
2018-08-24T05:11:08.854Z,1001.91
2018-08-24T05:11:49.421Z,1001.91
2018-08-24T05:12:29.991Z,1001.98
2018-08-24T05:13:10.556Z,1001.96
2018-08-24T05:13:51.142Z,1001.96
2018-08-24T05:14:31.719Z,1001.99
2018-08-24T05:15:12.291Z,1002.01
2018-08-24T05:15:52.854Z,1002.04
2018-08-24T05:16:33.462Z,1002.03
2018-08-24T05:17:14.029Z,1002.09
2018-08-24T05:17:54.595Z,1002.04
2018-08-24T05:18:35.162Z,1001.99
2018-08-24T05:19:15.762Z,1002.04
2018-08-24T05:19:56.341Z,1001.96
2018-08-24T05:20:36.931Z,1001.99
2018-08-24T05:21:17.543Z,1001.99
2018-08-24T05:21:58.048Z,1002.07
2018-08-24T05:22:38.662Z,1002.07
2018-08-24T05:23:19.230Z,1002.09
2018-08-24T05:23:59.809Z,1002.15
2018-08-24T05:24:40.457Z,1002.14
2018-08-24T05:25:20.952Z,1002.17
2018-08-24T05:26:01.510Z,1002.11
2018-08-24T05:26:42.074Z,1002.1
2018-08-24T05:27:22.636Z,1002.11
2018-08-24T05:28:03.288Z,1002.12
2018-08-24T05:28:43.777Z,1002.11
2018-08-24T05:29:24.348Z,1002.15
2018-08-24T05:30:04.934Z,1002.1
2018-08-24T05:30:45.474Z,1002.12
2018-08-24T05:31:26.036Z,1002.12
2018-08-24T05:32:06.650Z,1002.09
2018-08-24T05:32:47.231Z,1002.1
2018-08-24T05:33:27.799Z,1002.11
2018-08-24T05:34:08.344Z,1002.12
2018-08-24T05:34:48.914Z,1002.15
2018-08-24T05:35:29.505Z,1002.15
2018-08-24T05:36:10.052Z,1002.15
2018-08-24T05:36:50.612Z,1002.19
2018-08-24T05:37:31.189Z,1002.19
2018-08-24T05:38:11.743Z,1002.2
2018-08-24T05:38:52.313Z,1002.23
2018-08-24T05:39:32.878Z,1002.29
2018-08-24T05:40:13.448Z,1002.27
2018-08-24T05:40:54.015Z,1002.25
2018-08-24T05:41:34.665Z,1002.22
2018-08-24T05:42:15.137Z,1002.24
2018-08-24T05:42:55.701Z,1002.28
2018-08-24T05:43:36.256Z,1002.31
2018-08-24T05:44:16.824Z,1002.25
2018-08-24T05:44:57.403Z,1002.24
2018-08-24T05:45:38.038Z,1002.28
2018-08-24T05:46:18.595Z,1002.29
2018-08-24T05:46:59.152Z,1002.32
2018-08-24T05:47:39.713Z,1002.29
2018-08-24T05:48:20.289Z,1002.28
2018-08-24T05:49:00.855Z,1002.33
2018-08-24T05:49:41.442Z,1002.33
2018-08-24T05:50:22.015Z,1002.31
2018-08-24T05:51:02.579Z,1002.32
2018-08-24T05:51:43.145Z,1002.33
2018-08-24T05:52:23.718Z,1002.39
2018-08-24T05:53:04.318Z,1002.37
2018-08-24T05:53:44.881Z,1002.36
2018-08-24T05:54:25.451Z,1002.36
2018-08-24T05:55:06.006Z,1002.3
2018-08-24T05:55:46.673Z,1002.3
2018-08-24T05:56:27.148Z,1002.31
2018-08-24T05:57:07.750Z,1002.29
2018-08-24T05:57:48.321Z,1002.26
2018-08-24T05:58:28.934Z,1002.27
2018-08-24T05:59:09.505Z,1002.3
2018-08-24T05:59:50.071Z,1002.3
2018-08-24T06:00:30.630Z,1002.28
2018-08-24T06:01:11.205Z,1002.33
2018-08-24T06:01:51.774Z,1002.32
2018-08-24T06:02:32.333Z,1002.33
2018-08-24T06:03:12.984Z,1002.32
2018-08-24T06:03:53.573Z,1002.34
2018-08-24T06:04:34.135Z,1002.31
2018-08-24T06:05:14.713Z,1002.32
2018-08-24T06:05:55.300Z,1002.34
2018-08-24T06:06:35.860Z,1002.31
2018-08-24T06:07:16.424Z,1002.36
2018-08-24T06:07:56.982Z,1002.35
2018-08-24T06:08:37.573Z,1002.32
2018-08-24T06:09:18.159Z,1002.38
2018-08-24T06:09:58.752Z,1002.38
2018-08-24T06:10:39.302Z,1002.35
2018-08-24T06:11:19.889Z,1002.36
2018-08-24T06:12:00.478Z,1002.39
2018-08-24T06:12:41.050Z,1002.42
2018-08-24T06:13:21.649Z,1002.49
2018-08-24T06:14:02.221Z,1002.44
2018-08-24T06:14:42.838Z,1002.48
2018-08-24T06:15:23.400Z,1002.53
2018-08-24T06:16:03.959Z,1002.51
2018-08-24T06:16:44.593Z,1002.5
2018-08-24T06:17:25.112Z,1002.52
2018-08-24T06:18:05.682Z,1002.52
2018-08-24T06:18:46.232Z,1002.48
2018-08-24T06:19:26.804Z,1002.49
2018-08-24T06:20:07.394Z,1002.53
2018-08-24T06:20:47.961Z,1002.58
2018-08-24T06:21:28.521Z,1002.6
2018-08-24T06:22:09.084Z,1002.59
2018-08-24T06:22:49.649Z,1002.62
2018-08-24T06:23:30.222Z,1002.61
2018-08-24T06:24:10.824Z,1002.61
2018-08-24T06:24:51.423Z,1002.59
2018-08-24T06:25:32.650Z,1002.63
2018-08-24T06:26:13.221Z,1002.58
2018-08-24T06:26:53.811Z,1002.65
2018-08-24T06:27:34.434Z,1002.61
2018-08-24T06:28:14.999Z,1002.64
2018-08-24T06:28:55.613Z,1002.65
2018-08-24T06:29:36.190Z,1002.67
2018-08-24T06:30:16.741Z,1002.72
2018-08-24T06:30:57.391Z,1002.65
2018-08-24T06:31:38.012Z,1002.65
2018-08-24T06:32:18.646Z,1002.65
2018-08-24T06:32:59.269Z,1002.62
2018-08-24T06:33:39.887Z,1002.64
2018-08-24T06:34:20.501Z,1002.63
2018-08-24T06:35:01.079Z,1002.59
2018-08-24T06:35:41.699Z,1002.54
2018-08-24T06:36:22.268Z,1002.59
2018-08-24T06:37:03.048Z,1002.54
2018-08-24T06:37:43.772Z,1002.53
2018-08-24T06:38:24.669Z,1002.5
2018-08-24T06:39:05.273Z,1002.48
2018-08-24T06:39:45.889Z,1002.46
2018-08-24T06:40:26.548Z,1002.48
2018-08-24T06:41:07.346Z,1002.49
2018-08-24T06:41:48.012Z,1002.42
2018-08-24T06:42:28.586Z,1002.44
2018-08-24T06:43:09.151Z,1002.4
2018-08-24T06:43:49.693Z,1002.39
2018-08-24T06:44:30.268Z,1002.43
2018-08-24T06:45:11.072Z,1002.39
2018-08-24T06:45:51.630Z,1002.41
2018-08-24T06:46:32.203Z,1002.37
2018-08-24T06:47:12.807Z,1002.41
2018-08-24T06:47:53.561Z,1002.43
2018-08-24T06:48:34.128Z,1002.37
2018-08-24T06:49:14.689Z,1002.41
2018-08-24T06:49:55.316Z,1002.36
2018-08-24T06:50:35.959Z,1002.41
2018-08-24T06:51:16.547Z,1002.45
2018-08-24T06:51:57.148Z,1002.46
2018-08-24T06:52:37.760Z,1002.49
2018-08-24T06:53:18.630Z,1002.49
2018-08-24T06:53:59.306Z,1002.47
2018-08-24T06:54:39.785Z,1002.46
2018-08-24T06:55:20.416Z,1002.45
2018-08-24T06:56:01.044Z,1002.48
2018-08-24T06:56:41.612Z,1002.45
2018-08-24T06:57:22.214Z,1002.49
2018-08-24T06:58:02.839Z,1002.52
2018-08-24T06:58:43.527Z,1002.52
2018-08-24T06:59:24.189Z,1002.57
2018-08-24T07:00:04.874Z,1002.56
2018-08-24T07:00:45.613Z,1002.57
2018-08-24T07:01:26.230Z,1002.56
2018-08-24T07:02:06.778Z,1002.56
2018-08-24T07:02:47.414Z,1002.56
2018-08-24T07:03:28.053Z,1002.55
2018-08-24T07:04:08.654Z,1002.54
2018-08-24T07:04:49.210Z,1002.55
2018-08-24T07:05:29.851Z,1002.58
2018-08-24T07:06:10.472Z,1002.58
2018-08-24T07:06:51.059Z,1002.57
2018-08-24T07:07:31.602Z,1002.63
2018-08-24T07:08:12.212Z,1002.66
2018-08-24T07:08:52.780Z,1002.72
2018-08-24T07:09:33.353Z,1002.67
2018-08-24T07:10:13.913Z,1002.7
2018-08-24T07:10:54.494Z,1002.68
2018-08-24T07:11:35.082Z,1002.69
2018-08-24T07:12:15.638Z,1002.7
2018-08-24T07:12:56.431Z,1002.71
2018-08-24T07:13:36.987Z,1002.76
2018-08-24T07:14:17.554Z,1002.78
2018-08-24T07:14:58.109Z,1002.78
2018-08-24T07:15:38.669Z,1002.86
2018-08-24T07:16:19.235Z,1002.87
2018-08-24T07:16:59.836Z,1002.85
2018-08-24T07:17:40.464Z,1002.87
2018-08-24T07:18:21.088Z,1002.86
2018-08-24T07:19:01.639Z,1002.87
2018-08-24T07:19:42.266Z,1002.88
2018-08-24T07:20:22.926Z,1002.86
2018-08-24T07:21:03.500Z,1002.86
2018-08-24T07:21:44.169Z,1002.88
2018-08-24T07:22:24.682Z,1002.8
2018-08-24T07:23:05.240Z,1002.85
2018-08-24T07:23:45.809Z,1002.81
2018-08-24T07:24:26.439Z,1002.85
2018-08-24T07:25:07.077Z,1002.81
2018-08-24T07:25:47.572Z,1002.8
2018-08-24T07:26:28.181Z,1002.77
2018-08-24T07:27:08.768Z,1002.75
2018-08-24T07:27:49.321Z,1002.78
2018-08-24T07:28:29.891Z,1002.85
2018-08-24T07:29:10.460Z,1002.86
2018-08-24T07:29:51.020Z,1002.97
2018-08-24T07:30:31.580Z,1002.91
2018-08-24T07:31:12.142Z,1003
2018-08-24T07:31:52.712Z,1002.92
2018-08-24T07:32:33.304Z,1002.92
2018-08-24T07:33:13.852Z,1002.9
2018-08-24T07:33:54.419Z,1002.9
2018-08-24T07:34:34.964Z,1002.92
2018-08-24T07:35:15.552Z,1002.9
2018-08-24T07:35:56.148Z,1002.87
2018-08-24T07:36:36.715Z,1002.87
2018-08-24T07:37:17.291Z,1002.92
2018-08-24T07:37:57.844Z,1002.92
2018-08-24T07:38:38.409Z,1002.95
2018-08-24T07:39:18.970Z,1002.95
2018-08-24T07:39:59.538Z,1002.93
2018-08-24T07:40:40.112Z,1002.92
2018-08-24T07:41:20.686Z,1002.93
2018-08-24T07:42:01.347Z,1002.94
2018-08-24T07:42:41.821Z,1002.96
2018-08-24T07:43:22.389Z,1002.94
2018-08-24T07:44:02.963Z,1002.91
2018-08-24T07:44:43.536Z,1002.92
2018-08-24T07:45:24.091Z,1002.97
2018-08-24T07:46:04.684Z,1002.9
2018-08-24T07:46:45.255Z,1002.94
2018-08-24T07:47:25.821Z,1002.96
2018-08-24T07:48:06.375Z,1002.88
2018-08-24T07:48:47.012Z,1002.98
2018-08-24T07:49:27.574Z,1002.95
2018-08-24T07:50:08.142Z,1002.99
2018-08-24T07:50:48.707Z,1003
2018-08-24T07:51:29.295Z,1002.97
2018-08-24T07:52:09.884Z,1002.94
2018-08-24T07:52:50.446Z,1002.93
2018-08-24T07:53:31.023Z,1002.94
2018-08-24T07:54:11.594Z,1002.92
2018-08-24T07:54:52.159Z,1002.96
2018-08-24T07:55:32.720Z,1002.91
2018-08-24T07:56:13.287Z,1002.91
2018-08-24T07:56:53.887Z,1002.89
2018-08-24T07:57:34.429Z,1002.86
2018-08-24T07:58:14.992Z,1002.88
2018-08-24T07:58:55.576Z,1002.88
2018-08-24T07:59:36.177Z,1002.91
2018-08-24T08:00:16.753Z,1002.91
2018-08-24T08:00:57.358Z,1002.91
2018-08-24T08:01:37.922Z,1002.91
2018-08-24T08:02:18.500Z,1002.92
2018-08-24T08:02:59.071Z,1002.94
2018-08-24T08:03:39.640Z,1002.93
2018-08-24T08:04:20.215Z,1003.02
2018-08-24T08:05:00.800Z,1003.02
2018-08-24T08:05:41.376Z,1003.04
2018-08-24T08:06:21.960Z,1003.03
2018-08-24T08:07:02.534Z,1003.02
2018-08-24T08:07:43.125Z,1003.05
2018-08-24T08:08:23.694Z,1003.09
2018-08-24T08:09:04.256Z,1003.09
2018-08-24T08:09:44.818Z,1003.06
2018-08-24T08:10:25.379Z,1003.05
2018-08-24T08:11:05.954Z,1003.03
2018-08-24T08:11:46.568Z,1003.08
2018-08-24T08:12:27.157Z,1003.03